Terminal Aerodrome Forecast
Issued by NWS

Home | Current Version | Previous Version | Text Only | Print | Product List | Glossary On
Versions: 1 2 3 4 5 6 7 8 9 10 11 12 13 14 15 16 17 18 19 20 21 22 23 24 25 26 27 28 29 30 31 32 33 34 35 36
000
FTUS45 KFGZ 171120
TAFGCN
TAF
KGCN 171120Z 1712/1812 VRB05KT P6SM FEW090 SCT120
     FM171800 23010G18KT P6SM SCT090 BKN200
      TEMPO 1719/1723 VRB15G25KT 6SM -TSRA BKN080CB
     FM180300 VRB05KT P6SM SCT200=

USA.gov is the U.S. government's official web portal to all federal, state and local government web resources and services.